Date,TemperatureHighF,TemperatureAvgF,TemperatureLowF,DewpointHighF,DewpointAvgF,DewpointLowF,HumidityHigh,HumidityAvg,HumidityLow,PressureMaxIn,PressureMinIn,WindSpeedMaxMPH,WindSpeedAvgMPH,GustSpeedMaxMPH,PrecipitationSumIn
2013-7-1,81.3,71.3,60.3,62.0,56.9,51.7,93,64,38,30.18,30.09,7,0,10,0.00
2013-7-2,82.5,72.7,60.2,63.4,56.7,48.3,91,61,32,30.10,29.98,11,0,13,0.00
2013-7-3,86.7,73.7,58.7,63.9,58.2,54.2,92,62,36,29.98,29.80,2,0,7,0.00
2013-7-4,89.2,75.7,62.5,66.8,61.5,55.7,87,64,39,29.81,29.64,11,0,15,0.00
2013-7-5,88.8,77.2,65.7,70.4,64.9,59.3,86,67,45,29.68,29.64,4,0,7,0.00
2013-7-6,86.7,76.4,70.0,72.1,68.2,65.1,88,77,58,29.69,29.63,4,0,10,0.01
2013-7-7,84.4,75.2,68.7,74.6,68.3,61.8,96,80,63,29.88,29.68,11,2,14,0.00
2013-7-8,88.6,74.5,62.8,67.0,63.1,58.9,88,70,42,29.91,29.80,6,0,7,0.00
2013-7-9,80.7,71.8,64.1,70.6,66.1,62.1,97,83,63,29.96,29.64,9,0,22,1.90
2013-7-10,80.8,68.4,56.0,62.1,58.2,53.3,93,72,46,30.06,29.94,7,0,7,0.00
2013-7-11,85.5,72.5,59.6,69.7,62.7,55.6,89,73,57,29.99,29.75,8,0,16,0.00
2013-7-12,91.0,79.2,69.9,76.6,69.2,63.0,81,72,59,29.77,29.61,10,1,17,0.00
2013-7-13,88.8,78.3,72.6,77.9,73.6,70.5,95,86,67,29.85,29.71,11,1,16,0.00
2013-7-14,76.1,72.4,69.1,74.6,70.4,67.2,97,94,88,30.07,29.83,5,0,9,1.94
2013-7-15,84.9,74.5,68.2,72.6,67.8,65.7,95,81,58,30.09,29.98,7,0,11,0.00
2013-7-16,87.3,77.2,68.2,72.4,68.9,66.3,94,77,57,30.08,30.00,7,0,13,0.00
2013-7-17,88.7,78.8,68.3,73.9,69.7,65.8,93,75,54,30.11,29.95,7,0,14,0.00
2013-7-18,90.5,81.0,72.8,75.1,71.3,67.6,88,74,57,29.95,29.64,18,1,20,0.00
2013-7-19,81.8,73.9,66.0,72.3,64.0,59.6,89,72,54,29.87,29.70,8,0,12,0.00
2013-7-20,79.6,69.1,61.3,67.0,61.9,58.1,93,79,55,29.89,29.82,11,1,14,0.00
2013-7-21,86.1,72.8,61.3,69.2,64.4,59.0,94,77,50,29.84,29.60,7,0,8,0.00
2013-7-22,75.8,70.6,62.1,68.4,62.7,56.6,92,77,61,29.86,29.58,10,1,13,0.00
2013-7-23,71.9,63.3,55.0,57.2,55.1,52.3,92,76,57,29.99,29.85,7,1,9,0.00
2013-7-24,81.8,69.1,56.3,66.0,59.6,52.7,92,73,52,30.03,29.88,2,0,6,0.00
2013-7-25,79.4,68.9,60.9,65.6,61.1,52.3,96,78,56,29.95,29.86,8,0,12,0.00
2013-7-26,67.1,60.0,53.4,53.8,50.7,47.3,90,73,53,30.12,29.95,13,2,18,0.00
2013-7-27,66.2,58.4,50.3,49.6,47.2,44.0,90,68,50,30.15,30.00,14,2,17,0.00
2013-7-28,72.8,59.4,47.0,53.7,49.2,44.0,92,71,47,30.05,29.97,3,0,8,0.00
2013-7-29,67.8,58.4,49.2,59.7,52.8,45.8,91,82,65,30.03,29.98,7,0,10,0.07
2013-7-30,76.7,66.3,60.8,66.1,61.6,57.7,95,85,66,30.05,29.95,5,0,12,0.00
2013-7-31,77.0,65.8,56.8,63.5,58.6,53.6,96,80,52,30.10,29.99,6,0,10,0.06